Time;durP1;ratioP1;P1;durP2;ratioP2;P2;SDS_P1;SDS_P2;PMS_P1;PMS_P2;Temp;Humidity;BMP_temperature;BMP_pressure;BME280_temperature;BME280_humidity;BME280_pressure;Samples;Min_cycle;Max_cycle;Signal;HPM_P1;HPM_P2
2022/05/26 00:00:31;;;;;;;25.58;7.82;;;;;;;22.22;52.19;101752.28;5032770;28;20054;-70
2022/05/26 00:02:56;;;;;;;19.08;5.93;;;;;;;23.50;47.88;101743.63;5031080;28;20116;-72
2022/05/26 00:05:22;;;;;;;23.15;6.28;;;;;;;23.05;49.10;101755.56;5031408;28;20029;-71
2022/05/26 00:07:47;;;;;;;25.65;5.53;;;;;;;23.19;48.58;101742.50;5032574;28;20021;-70
2022/05/26 00:10:13;;;;;;;23.48;6.07;;;;;;;23.17;49.33;101743.50;5036719;28;20500;-70
2022/05/26 00:12:39;;;;;;;21.08;5.75;;;;;;;23.12;48.66;101750.81;5033121;28;20135;-70
2022/05/26 00:15:06;;;;;;;25.10;5.50;;;;;;;23.90;46.46;101742.56;5032372;28;20366;-70
2022/05/26 00:17:32;;;;;;;18.63;5.18;;;;;;;23.75;47.21;101747.72;5059845;28;20496;-70
2022/05/26 00:19:58;;;;;;;22.20;6.20;;;;;;;23.98;46.17;101745.72;5033080;28;20033;-70
2022/05/26 00:22:24;;;;;;;22.48;6.07;;;;;;;24.06;45.97;101754.19;5032298;28;20032;-70
2022/05/26 00:24:50;;;;;;;14.13;5.00;;;;;;;22.59;50.66;101747.13;5032110;28;20021;-70
2022/05/26 00:27:15;;;;;;;22.88;5.75;;;;;;;23.38;48.35;101747.78;5032664;28;20053;-70
2022/05/26 00:29:40;;;;;;;25.85;5.57;;;;;;;22.40;51.25;101753.28;5030207;28;20524;-70
2022/05/26 00:32:06;;;;;;;24.90;4.85;;;;;;;23.31;48.92;101746.34;5026876;28;20025;-70
2022/05/26 00:34:32;;;;;;;23.35;5.15;;;;;;;23.80;46.47;101753.69;5031292;28;20025;-70
2022/05/26 00:36:57;;;;;;;17.45;4.57;;;;;;;23.40;48.87;101749.50;5030814;28;20504;-70
2022/05/26 00:39:24;;;;;;;27.85;6.57;;;;;;;23.55;47.44;101760.28;5029728;28;20110;-69
2022/05/26 00:41:56;;;;;;;23.45;5.22;;;;;;;23.55;48.02;101760.28;5031760;28;20072;-70
2022/05/26 00:44:22;;;;;;;20.90;4.90;;;;;;;23.34;48.45;101756.00;5050746;28;20086;-70
2022/05/26 00:46:56;;;;;;;19.05;4.30;;;;;;;22.94;48.35;101768.56;5038462;28;20030;-70
2022/05/26 00:49:30;;;;;;;19.83;5.05;;;;;;;23.43;48.07;101758.22;5031337;28;20025;-70
2022/05/26 00:51:56;;;;;;;21.80;5.18;;;;;;;23.07;47.89;101763.50;5030654;28;20025;-70
2022/05/26 00:54:24;;;;;;;25.90;5.00;;;;;;;23.20;48.09;101756.69;5032032;28;20079;-70
2022/05/26 00:57:04;;;;;;;30.27;4.40;;;;;;;23.45;47.57;101759.03;5031696;28;20025;-69
2022/05/26 01:00:09;;;;;;;20.88;4.32;;;;;;;22.91;49.05;101774.03;5034916;28;20103;-70
2022/05/26 01:02:38;;;;;;;19.50;4.60;;;;;;;22.53;49.58;101781.09;5019780;28;20120;-70
2022/05/26 01:05:12;;;;;;;18.00;4.05;;;;;;;23.41;46.79;101762.78;5031939;28;20045;-70
2022/05/26 01:07:39;;;;;;;18.05;2.97;;;;;;;22.66;49.49;101769.88;5032359;28;20029;-70
2022/05/26 01:10:07;;;;;;;19.08;3.40;;;;;;;21.60;53.07;101775.34;5030342;28;20029;-68
2022/05/26 01:12:32;;;;;;;26.75;4.25;;;;;;;22.42;50.66;101785.16;5031191;28;20036;-70
2022/05/26 01:15:15;;;;;;;21.33;3.80;;;;;;;22.84;48.47;101779.66;5030800;28;20017;-69
2022/05/26 01:18:08;;;;;;;20.98;4.22;;;;;;;22.91;48.13;101777.56;5044181;28;20029;-70
2022/05/26 01:20:42;;;;;;;20.20;3.35;;;;;;;23.96;45.67;101785.84;5012436;28;20061;-70
2022/05/26 01:23:28;;;;;;;15.82;3.30;;;;;;;24.07;45.40;101793.28;5011209;28;20125;-70
2022/05/26 01:26:15;;;;;;;19.60;3.65;;;;;;;23.08;48.40;101798.13;5026514;28;20033;-70
2022/05/26 01:29:07;;;;;;;25.52;3.03;;;;;;;23.29;48.40;101784.72;5032096;28;20052;-69
2022/05/26 01:31:45;;;;;;;16.05;2.78;;;;;;;23.65;46.08;101799.84;5028809;28;20088;-70
2022/05/26 01:34:30;;;;;;;24.80;3.83;;;;;;;22.82;47.56;101792.19;5028966;28;20102;-70
2022/05/26 01:36:55;;;;;;;25.02;3.83;;;;;;;23.14;47.78;101797.84;5033157;28;20025;-70
2022/05/26 01:39:26;;;;;;;15.90;3.10;;;;;;;22.91;47.76;101798.88;5036563;28;20022;-70
2022/05/26 01:42:36;;;;;;;23.15;3.20;;;;;;;22.60;48.16;101797.66;5038434;28;20025;-71
2022/05/26 01:45:14;;;;;;;20.58;3.58;;;;;;;22.69;48.44;101804.34;5032689;28;20482;-70
2022/05/26 01:47:40;;;;;;;18.27;2.97;;;;;;;22.61;49.22;101803.84;5035246;28;20069;-71
2022/05/26 01:50:29;;;;;;;22.38;3.20;;;;;;;22.47;49.50;101813.31;5037277;28;20037;-70
2022/05/26 01:53:16;;;;;;;12.73;3.05;;;;;;;22.57;48.16;101816.41;5050959;28;20091;-70
2022/05/26 01:55:53;;;;;;;17.27;3.00;;;;;;;22.32;49.73;101820.16;5036650;28;20116;-70
2022/05/26 01:58:33;;;;;;;20.45;2.90;;;;;;;23.90;45.18;101809.31;5036749;28;20552;-70
2022/05/26 02:01:01;;;;;;;16.23;3.60;;;;;;;24.19;44.81;101808.69;5035409;28;20048;-70
2022/05/26 02:03:32;;;;;;;24.33;3.60;;;;;;;23.09;46.33;101815.81;5038194;28;20028;-70
2022/05/26 02:06:12;;;;;;;11.43;2.30;;;;;;;22.23;48.21;101825.00;5037271;28;20384;-70
2022/05/26 02:09:15;;;;;;;23.42;3.45;;;;;;;23.44;45.87;101821.31;5031559;28;20052;-70
2022/05/26 02:11:46;;;;;;;16.42;2.88;;;;;;;22.62;47.28;101827.75;5033048;28;20139;-70
2022/05/26 02:14:19;;;;;;;20.33;4.05;;;;;;;23.91;45.26;101829.72;5034557;28;20152;-70
2022/05/26 02:16:49;;;;;;;23.15;2.75;;;;;;;24.80;42.42;101822.41;5070290;28;20481;-71
2022/05/26 02:19:45;;;;;;;18.60;2.58;;;;;;;23.57;44.96;101826.03;5035942;28;20036;-70
2022/05/26 02:22:30;;;;;;;15.65;2.72;;;;;;;24.10;43.76;101841.19;5022623;28;20408;-70
2022/05/26 02:25:02;;;;;;;11.52;3.08;;;;;;;22.85;46.82;101834.69;5038751;28;20024;-71
2022/05/26 02:27:29;;;;;;;12.02;2.78;;;;;;;23.28;45.42;101831.00;5037625;28;20119;-70
2022/05/26 02:29:59;;;;;;;12.60;2.45;;;;;;;23.54;45.38;101830.56;5037960;28;20100;-70
2022/05/26 02:32:35;;;;;;;15.05;2.45;;;;;;;24.11;43.61;101826.91;5037837;28;20074;-71
2022/05/26 02:35:07;;;;;;;13.13;2.35;;;;;;;22.12;47.88;101845.00;5034553;28;20060;-70
2022/05/26 02:37:35;;;;;;;16.20;3.17;;;;;;;23.74;44.48;101842.09;5038003;28;20108;-70
2022/05/26 02:40:00;;;;;;;10.38;2.30;;;;;;;24.10;43.35;101846.53;5038169;28;20480;-70
2022/05/26 02:42:28;;;;;;;12.27;2.58;;;;;;;22.97;45.97;101853.72;5037675;28;20097;-71
2022/05/26 02:44:54;;;;;;;14.88;3.47;;;;;;;23.49;45.23;101845.97;5037626;28;20021;-70
2022/05/26 02:47:41;;;;;;;18.20;3.33;;;;;;;23.45;44.42;101855.06;5034948;28;20037;-70
2022/05/26 02:50:17;;;;;;;13.10;2.88;;;;;;;24.21;43.03;101860.19;5031953;28;20051;-70
2022/05/26 02:53:01;;;;;;;10.13;2.40;;;;;;;23.74;43.97;101866.09;5033381;28;20477;-70
2022/05/26 02:55:26;;;;;;;8.05;2.00;;;;;;;23.29;44.26;101859.41;5033380;28;20035;-70
2022/05/26 02:58:04;;;;;;;10.70;2.60;;;;;;;23.58;43.45;101860.66;5033769;28;20112;-70
2022/05/26 03:00:38;;;;;;;11.32;2.60;;;;;;;23.05;45.35;101867.56;5043109;28;20041;-72
2022/05/26 03:03:21;;;;;;;9.77;2.53;;;;;;;22.34;46.70;101876.06;5013817;28;20038;-71
2022/05/26 03:06:15;;;;;;;8.07;2.20;;;;;;;21.60;48.53;101869.31;5017826;28;20029;-70
2022/05/26 03:08:43;;;;;;;12.80;2.17;;;;;;;22.12;47.19;101866.28;5033834;28;20115;-71
2022/05/26 03:11:17;;;;;;;14.23;2.08;;;;;;;22.70;45.19;101870.03;5033622;28;20128;-70
2022/05/26 03:13:43;;;;;;;9.43;1.67;;;;;;;23.28;44.43;101865.66;5034121;28;20037;-71
2022/05/26 03:16:08;;;;;;;10.73;2.22;;;;;;;22.41;45.82;101872.19;5032228;28;20035;-70
2022/05/26 03:18:35;;;;;;;9.00;1.83;;;;;;;23.42;43.33;101860.50;5033392;28;20041;-71
2022/05/26 03:21:02;;;;;;;8.27;2.40;;;;;;;22.86;44.10;101881.75;5024204;28;20026;-71
2022/05/26 03:23:27;;;;;;;12.52;3.55;;;;;;;23.13;44.42;101884.09;5014540;28;20026;-71
2022/05/26 03:25:57;;;;;;;2.83;1.48;;;;;;;23.10;43.57;101886.88;5054737;28;20481;-71
2022/05/26 03:28:27;;;;;;;6.97;2.10;;;;;;;23.50;43.27;101873.50;5031982;28;20053;-71
2022/05/26 03:30:53;;;;;;;10.18;2.20;;;;;;;22.35;45.98;101883.09;5030491;28;20095;-70
2022/05/26 03:33:18;;;;;;;11.68;2.53;;;;;;;;;;5033258;28;20483;-70
2022/05/26 03:41:13;;;;;;;13.38;2.50;;;;;;;23.55;43.25;101880.34;5031839;28;20056;-71
2022/05/26 03:43:45;;;;;;;7.22;1.75;;;;;;;23.61;42.70;101880.97;5033961;28;20362;-70
2022/05/26 03:46:11;;;;;;;9.80;2.30;;;;;;;22.66;44.71;101887.09;5030823;28;20367;-70
2022/05/26 03:48:38;;;;;;;7.13;1.80;;;;;;;23.66;42.12;101884.31;5033627;28;20040;-71
2022/05/26 03:51:05;;;;;;;9.60;2.38;;;;;;;23.27;43.35;101896.78;5049811;28;20388;-71
2022/05/26 03:53:31;;;;;;;8.50;2.78;;;;;;;22.31;45.40;101892.13;5046682;28;20056;-71
2022/05/26 03:55:56;;;;;;;9.85;2.00;;;;;;;21.41;48.01;101895.72;5032797;28;20422;-71
2022/05/26 03:58:21;;;;;;;10.07;2.08;;;;;;;22.91;44.90;101896.66;5033643;28;20068;-71
2022/05/26 04:00:47;;;;;;;5.55;1.77;;;;;;;22.18;46.04;101892.63;5022059;28;20036;-70
2022/05/26 04:03:13;;;;;;;10.68;2.10;;;;;;;21.99;46.18;101892.53;5047090;28;20112;-70
2022/05/26 04:05:39;;;;;;;7.13;2.13;;;;;;;22.24;46.08;101906.63;5031368;28;20489;-71
2022/05/26 04:08:04;;;;;;;8.27;2.15;;;;;;;22.63;45.35;101906.75;5033244;28;20061;-70
2022/05/26 04:10:30;;;;;;;7.00;2.05;;;;;;;23.44;43.67;101896.00;5032049;28;20397;-71
2022/05/26 04:12:55;;;;;;;10.93;2.63;;;;;;;22.35;46.62;101909.72;5032820;28;20029;-71
2022/05/26 04:15:21;;;;;;;10.25;2.63;;;;;;;21.95;47.29;101919.34;5031379;28;20025;-71
2022/05/26 04:17:47;;;;;;;8.77;2.08;;;;;;;22.18;46.65;101918.41;5032818;28;20030;-71
2022/05/26 04:20:15;;;;;;;12.43;4.32;;;;;;;23.19;44.01;101923.81;5032926;28;20052;-71
2022/05/26 04:22:41;;;;;;;12.65;3.53;;;;;;;23.66;42.98;101916.31;5032248;28;20033;-71
2022/05/26 04:25:07;;;;;;;9.07;1.77;;;;;;;23.09;44.13;101934.94;5064444;28;20440;-71
2022/05/26 04:27:33;;;;;;;9.75;2.13;;;;;;;23.00;44.21;101938.91;5031932;28;20026;-71
2022/05/26 04:30:01;;;;;;;13.63;2.40;;;;;;;21.91;46.89;101942.56;5030852;28;20033;-71
2022/05/26 04:32:27;;;;;;;8.75;1.90;;;;;;;21.99;46.66;101940.44;5031319;28;20030;-71
2022/05/26 04:34:53;;;;;;;8.90;1.98;;;;;;;22.51;45.50;101942.78;5031341;28;20034;-70
2022/05/26 04:37:20;;;;;;;8.23;2.20;;;;;;;22.36;46.12;101946.94;5032857;28;20124;-70
2022/05/26 04:39:46;;;;;;;10.10;2.28;;;;;;;23.14;43.78;101947.16;5032523;28;20043;-71
2022/05/26 04:42:12;;;;;;;7.13;2.00;;;;;;;23.38;43.28;101954.97;5047904;28;20028;-71
2022/05/26 04:44:42;;;;;;;7.03;2.05;;;;;;;22.77;45.30;101948.78;5040230;28;20029;-70
2022/05/26 04:47:08;;;;;;;11.25;2.53;;;;;;;22.57;45.60;101956.75;5029341;28;20057;-70
2022/05/26 04:49:35;;;;;;;7.88;2.10;;;;;;;23.12;44.16;101967.72;5031718;28;20057;-70
2022/05/26 04:52:00;;;;;;;7.28;1.77;;;;;;;23.07;44.19;101961.69;5032857;28;20494;-71
2022/05/26 04:54:26;;;;;;;9.55;1.90;;;;;;;23.31;43.40;101961.53;5032390;28;20025;-70
2022/05/26 04:56:58;;;;;;;10.35;1.80;;;;;;;23.37;42.57;101963.91;5031718;28;20065;-70
2022/05/26 04:59:25;;;;;;;6.60;2.15;;;;;;;23.15;44.10;101967.56;5038072;28;20108;-70
2022/05/26 05:01:50;;;;;;;11.13;2.08;;;;;;;23.39;43.05;101972.69;5032233;28;20021;-71
2022/05/26 05:04:15;;;;;;;5.18;1.80;;;;;;;21.77;46.54;101972.38;5031716;28;20028;-71
2022/05/26 05:06:41;;;;;;;6.28;1.73;;;;;;;22.62;44.37;101970.75;5032235;28;20075;-70
2022/05/26 05:09:06;;;;;;;13.05;2.38;;;;;;;23.55;42.80;101978.22;5032234;28;20021;-71
2022/05/26 05:11:31;;;;;;;9.38;2.45;;;;;;;23.03;44.23;101976.09;5029352;28;20040;-70
2022/05/26 05:14:01;;;;;;;7.20;1.80;;;;;;;22.38;45.72;101978.88;5031500;28;20028;-71
2022/05/26 05:16:34;;;;;;;6.88;2.20;;;;;;;22.41;45.74;101983.16;5031859;28;20477;-70
2022/05/26 05:19:00;;;;;;;8.57;1.98;;;;;;;23.80;42.49;101983.22;5030791;28;20032;-70
2022/05/26 05:21:56;;;;;;;9.68;3.47;;;;;;;22.22;45.71;101988.38;5030233;28;20029;-71
2022/05/26 05:24:39;;;;;;;5.82;2.08;;;;;;;21.94;47.60;101985.03;5030203;28;20024;-70
2022/05/26 05:27:29;;;;;;;10.88;2.22;;;;;;;22.56;45.94;101987.00;5032734;28;20132;-70
2022/05/26 05:29:58;;;;;;;5.20;1.95;;;;;;;22.24;46.26;101991.84;5016725;28;20409;-70
2022/05/26 05:32:31;;;;;;;13.30;2.13;;;;;;;22.75;45.89;101998.63;5030589;28;20110;-70
2022/05/26 05:35:06;;;;;;;11.25;2.88;;;;;;;20.94;49.77;102002.91;5031824;28;20052;-69
2022/05/26 05:37:33;;;;;;;10.73;2.58;;;;;;;22.64;46.41;102000.84;5031392;28;20470;-70
2022/05/26 05:39:59;;;;;;;9.90;2.17;;;;;;;22.27;46.41;102002.34;5030791;28;20071;-70
2022/05/26 05:42:25;;;;;;;8.10;2.03;;;;;;;21.91;47.96;102008.25;5029970;28;20056;-70
2022/05/26 05:44:51;;;;;;;12.32;2.55;;;;;;;21.66;48.71;102006.53;5010163;28;20126;-70
2022/05/26 05:47:17;;;;;;;13.52;2.55;;;;;;;22.12;48.14;102010.06;5048747;28;20041;-71
2022/05/26 05:49:44;;;;;;;6.82;2.15;;;;;;;22.77;46.49;102012.72;5032200;28;20041;-70
2022/05/26 05:52:12;;;;;;;12.38;1.77;;;;;;;22.72;46.07;102005.88;5031224;28;20444;-70
2022/05/26 05:54:39;;;;;;;5.82;2.15;;;;;;;22.75;46.49;102009.28;5028158;28;20520;-70
2022/05/26 05:57:06;;;;;;;13.57;2.10;;;;;;;22.03;47.45;102021.06;5031193;28;20049;-71
2022/05/26 05:59:31;;;;;;;10.52;2.67;;;;;;;23.55;44.20;102016.41;5047329;28;20375;-70
2022/05/26 06:01:57;;;;;;;17.30;2.05;;;;;;;23.07;44.83;102023.00;5030879;28;20036;-70
2022/05/26 06:04:22;;;;;;;14.32;1.85;;;;;;;22.40;46.42;102030.25;5030090;28;20036;-70
2022/05/26 06:06:48;;;;;;;11.50;3.05;;;;;;;23.13;44.97;102030.75;5030375;28;20531;-70
2022/05/26 06:09:16;;;;;;;11.30;2.38;;;;;;;23.14;44.89;102032.50;5030101;28;20027;-70
2022/05/26 06:11:42;;;;;;;8.80;2.10;;;;;;;23.13;45.11;102027.22;5030268;28;20424;-70
2022/05/26 06:14:08;;;;;;;12.27;2.10;;;;;;;22.62;45.63;102029.38;5032531;28;20064;-70
2022/05/26 06:16:33;;;;;;;8.52;2.22;;;;;;;22.66;44.85;102037.16;5032254;28;20053;-70
2022/05/26 06:19:00;;;;;;;10.40;2.25;;;;;;;23.29;44.21;102038.09;5030761;28;20396;-70
2022/05/26 06:21:26;;;;;;;8.65;2.65;;;;;;;24.00;43.50;102043.72;5031120;28;20523;-70
2022/05/26 06:23:53;;;;;;;7.75;2.30;;;;;;;23.28;43.94;102044.34;5030731;28;20057;-70
2022/05/26 06:26:19;;;;;;;8.18;1.90;;;;;;;24.30;42.19;102043.16;5034684;28;20040;-71
2022/05/26 06:31:28;;;;;;;8.00;1.73;;;;;;;25.16;39.03;102046.00;5033476;28;20048;-70
2022/05/26 06:39:23;;;;;;;7.00;1.70;;;;;;;26.89;35.72;102065.88;5037226;28;20048;-70
2022/05/26 06:42:08;;;;;;;6.65;1.40;;;;;;;26.03;37.30;102065.47;5045159;28;20033;-70
2022/05/26 06:44:37;;;;;;;9.77;2.28;;;;;;;26.09;37.42;102065.13;5033981;28;20026;-70
2022/05/26 06:47:08;;;;;;;7.25;1.95;;;;;;;25.07;39.84;102065.19;5032729;28;20033;-70
2022/05/26 06:49:35;;;;;;;11.98;1.92;;;;;;;26.67;36.92;102062.72;5032449;28;20340;-70
2022/05/26 06:52:02;;;;;;;6.50;2.45;;;;;;;26.22;37.17;102074.19;5035594;28;20362;-70
2022/05/26 06:54:31;;;;;;;9.25;1.80;;;;;;;28.50;33.31;102063.88;5022344;28;20021;-69
2022/05/26 06:56:56;;;;;;;7.78;2.72;;;;;;;30.03;32.07;102060.50;5036239;28;20034;-70
2022/05/26 06:59:21;;;;;;;9.80;2.35;;;;;;;30.13;30.02;102066.94;5030121;28;20116;-70
2022/05/26 07:01:47;;;;;;;10.85;2.35;;;;;;;29.47;31.21;102069.88;5029254;28;20029;-71
2022/05/26 07:04:12;;;;;;;10.27;2.42;;;;;;;27.78;32.87;102080.19;5033239;28;20068;-69
2022/05/26 07:06:40;;;;;;;8.50;1.90;;;;;;;27.82;33.53;102084.38;5022469;28;20029;-68
2022/05/26 07:09:05;;;;;;;6.75;1.73;;;;;;;27.91;33.07;102075.72;5012670;28;20033;-68
2022/05/26 07:11:32;;;;;;;7.50;1.83;;;;;;;28.02;33.15;102079.59;5031800;28;20121;-68
2022/05/26 07:13:57;;;;;;;6.15;1.50;;;;;;;25.87;36.73;102092.19;5033689;28;20084;-69
2022/05/26 07:16:23;;;;;;;7.82;1.98;;;;;;;27.91;34.02;102094.53;5031369;28;20432;-69
2022/05/26 07:18:50;;;;;;;5.15;1.20;;;;;;;28.15;33.90;102096.66;5020564;28;20034;-69
2022/05/26 07:21:16;;;;;;;8.68;1.38;;;;;;;29.05;31.17;102101.47;5020914;28;20022;-69
2022/05/26 07:23:42;;;;;;;6.05;1.35;;;;;;;29.71;30.19;102104.94;5029749;28;20028;-68
2022/05/26 07:26:12;;;;;;;5.20;1.10;;;;;;;27.92;33.05;102115.06;5032704;28;20087;-68
2022/05/26 07:28:40;;;;;;;5.53;1.40;;;;;;;28.91;32.34;102103.28;5036745;28;20504;-68
2022/05/26 07:31:06;;;;;;;5.00;1.48;;;;;;;29.63;30.29;102096.53;5033591;28;20034;-68
2022/05/26 07:33:33;;;;;;;7.35;1.30;;;;;;;28.26;33.02;102094.13;5035501;28;20081;-68
2022/05/26 07:35:58;;;;;;;11.85;1.73;;;;;;;27.85;33.78;102103.00;5026778;28;20116;-69
2022/05/26 07:41:23;;;;;;;7.35;2.00;;;;;;;26.99;34.86;102093.00;5033140;28;20048;-67
2022/05/26 07:43:52;;;;;;;7.53;1.77;;;;;;;30.06;30.75;102088.09;5031609;28;20032;-69
2022/05/26 07:46:20;;;;;;;5.82;1.40;;;;;;;32.74;27.39;102080.63;5022490;28;20057;-68
2022/05/26 07:48:46;;;;;;;2.83;1.20;;;;;;;31.67;27.73;102097.50;5038115;28;20033;-68
2022/05/26 07:51:11;;;;;;;6.75;1.65;;;;;;;30.31;29.41;102101.56;5030718;28;20525;-67
2022/05/26 07:53:37;;;;;;;12.68;1.73;;;;;;;31.28;27.74;102103.22;5033593;28;20114;-68
2022/05/26 07:56:02;;;;;;;8.68;1.85;;;;;;;29.44;30.34;102102.38;5027681;28;20037;-68
2022/05/26 07:58:28;;;;;;;4.45;1.42;;;;;;;27.54;33.00;102112.97;5030103;28;20034;-68
2022/05/26 08:00:54;;;;;;;4.22;1.23;;;;;;;29.10;31.60;102107.41;5032354;28;20021;-68
2022/05/26 08:03:20;;;;;;;3.53;1.30;;;;;;;26.55;35.55;102113.41;5020370;28;20022;-68
2022/05/26 08:05:46;;;;;;;6.05;1.73;;;;;;;27.21;34.10;102118.56;5027866;28;20029;-68
2022/05/26 08:08:11;;;;;;;3.90;1.40;;;;;;;29.56;31.59;102117.66;5061022;28;20246;-68
2022/05/26 08:10:38;;;;;;;5.32;1.83;;;;;;;30.96;29.21;102116.47;5030208;28;20525;-68
2022/05/26 08:13:04;;;;;;;6.00;1.70;;;;;;;30.51;29.01;102114.44;5030258;28;20040;-68
2022/05/26 08:15:31;;;;;;;7.93;1.63;;;;;;;30.65;28.68;102116.09;5033738;28;20029;-69
2022/05/26 08:17:56;;;;;;;9.27;1.40;;;;;;;30.21;28.81;102118.44;5031857;28;20029;-68
2022/05/26 08:20:22;;;;;;;5.93;1.17;;;;;;;30.35;29.26;102120.13;5031708;28;20455;-69
2022/05/26 08:22:48;;;;;;;6.78;1.25;;;;;;;29.32;30.28;102122.97;5032916;28;20444;-70
2022/05/26 08:25:13;;;;;;;6.78;1.15;;;;;;;29.91;29.40;102125.09;5014631;28;20030;-70
2022/05/26 08:27:39;;;;;;;6.93;1.40;;;;;;;30.84;26.72;102126.38;5027298;28;20041;-70
2022/05/26 08:30:05;;;;;;;5.38;1.17;;;;;;;31.07;26.94;102124.63;5028893;28;20030;-70
2022/05/26 08:32:31;;;;;;;7.47;1.67;;;;;;;31.19;27.95;102124.66;5009590;28;20840;-70
2022/05/26 08:35:02;;;;;;;8.07;1.23;;;;;;;29.83;28.30;102130.16;5016304;28;20057;-70
2022/05/26 08:37:27;;;;;;;4.03;1.27;;;;;;;29.83;29.01;102135.53;5030398;28;20038;-70
2022/05/26 08:39:52;;;;;;;6.43;1.52;;;;;;;31.67;27.89;102139.84;5031155;28;20068;-70
2022/05/26 08:42:23;;;;;;;5.40;1.10;;;;;;;31.33;27.54;102142.50;5033221;28;20044;-70
2022/05/26 08:44:49;;;;;;;7.30;1.38;;;;;;;28.20;30.99;102159.00;5030194;28;20159;-71
2022/05/26 08:47:23;;;;;;;8.73;2.08;;;;;;;28.82;31.00;102165.75;5030442;28;20060;-71
2022/05/26 08:49:57;;;;;;;4.00;1.02;;;;;;;29.45;29.28;102158.81;5031357;28;20025;-71
2022/05/26 08:52:40;;;;;;;5.47;1.20;;;;;;;30.80;27.56;102157.25;5030662;28;20039;-71
2022/05/26 08:55:23;;;;;;;8.95;1.52;;;;;;;31.76;27.65;102155.31;5030936;28;20120;-71
2022/05/26 08:58:14;;;;;;;6.43;1.25;;;;;;;31.15;27.44;102160.97;5019685;28;20108;-68
2022/05/26 09:00:41;;;;;;;4.45;1.15;;;;;;;32.09;24.82;102167.09;5030333;28;20024;-70
2022/05/26 09:03:27;;;;;;;4.65;1.08;;;;;;;30.71;28.84;102174.16;5031282;28;20095;-71
2022/05/26 09:06:07;;;;;;;8.95;1.50;;;;;;;29.80;29.43;102173.47;5029148;28;20029;-71
2022/05/26 09:14:00;;;;;;;7.47;1.45;;;;;;;28.23;31.65;102183.03;5031984;28;20470;-70
2022/05/26 09:16:31;;;;;;;4.72;1.10;;;;;;;28.12;32.49;102185.50;5031459;28;20426;-71
2022/05/26 09:19:30;;;;;;;7.40;2.33;;;;;;;27.10;32.54;102188.97;5031917;28;20033;-71
2022/05/26 09:21:56;;;;;;;4.53;1.60;;;;;;;30.14;29.06;102184.53;5029225;28;20045;-71
2022/05/26 09:24:36;;;;;;;5.82;1.42;;;;;;;30.66;28.36;102187.97;5030922;28;20033;-70
2022/05/26 09:27:29;;;;;;;6.78;1.75;;;;;;;31.42;26.78;102193.06;5031619;28;20730;-69
2022/05/26 09:30:23;;;;;;;4.95;1.10;;;;;;;29.66;29.50;102187.06;5022011;28;20053;-70
2022/05/26 09:32:49;;;;;;;6.13;0.98;;;;;;;31.11;28.37;102190.06;5038387;28;20032;-69
2022/05/26 09:35:25;;;;;;;5.38;2.13;;;;;;;30.03;29.70;102195.25;5029993;28;20056;-69
2022/05/26 09:37:54;;;;;;;7.90;2.25;;;;;;;28.42;32.00;102206.00;5030006;28;20067;-70
2022/05/26 09:40:30;;;;;;;5.82;1.35;;;;;;;28.90;32.17;102195.72;5030624;28;20025;-70
2022/05/26 09:43:04;;;;;;;5.25;1.27;;;;;;;32.38;27.33;102194.50;5031164;28;20571;-70
2022/05/26 09:45:55;;;;;;;6.25;1.55;;;;;;;32.86;25.23;102187.88;5029783;28;20021;-70
2022/05/26 09:48:31;;;;;;;4.75;1.00;;;;;;;28.53;30.23;102216.94;5030854;28;20514;-70
2022/05/26 09:51:24;;;;;;;4.28;1.10;;;;;;;26.99;32.46;102218.25;5028597;28;20036;-70
2022/05/26 09:53:51;;;;;;;5.32;1.25;;;;;;;27.66;32.16;102212.53;5033030;28;20040;-71
2022/05/26 09:56:31;;;;;;;5.25;1.15;;;;;;;28.29;31.92;102215.81;5063347;28;20029;-71
2022/05/26 09:58:57;;;;;;;4.45;0.95;;;;;;;29.07;29.23;102207.19;5032287;28;20044;-69
2022/05/26 10:01:23;;;;;;;6.05;1.15;;;;;;;31.30;27.29;102203.84;5032576;28;20029;-70
2022/05/26 10:03:51;;;;;;;3.50;0.93;;;;;;;28.36;30.19;102217.19;5022485;28;20021;-69
2022/05/26 10:06:34;;;;;;;9.23;1.17;;;;;;;31.45;28.89;102211.75;5032717;28;20029;-72
2022/05/26 10:09:15;;;;;;;7.13;1.40;;;;;;;30.14;27.71;102203.41;5034816;28;20075;-71
2022/05/26 10:12:02;;;;;;;6.07;1.00;;;;;;;30.77;26.76;102206.91;5034296;28;20036;-72
2022/05/26 10:14:59;;;;;;;4.28;1.30;;;;;;;29.91;28.80;102227.50;5035916;28;20072;-71
2022/05/26 10:17:54;;;;;;;5.53;1.30;;;;;;;26.62;32.21;102231.03;5017612;28;20470;-72
2022/05/26 10:20:38;;;;;;;4.28;0.98;;;;;;;28.85;29.10;102232.84;5019514;28;20032;-71
2022/05/26 10:23:21;;;;;;;5.15;1.40;;;;;;;29.11;30.08;102224.84;5055030;28;20028;-71
2022/05/26 10:25:58;;;;;;;7.65;1.08;;;;;;;28.18;31.76;102230.81;5054257;28;20021;-71
2022/05/26 10:28:54;;;;;;;2.70;0.95;;;;;;;28.55;29.49;102217.72;5032806;28;20095;-71
2022/05/26 10:31:29;;;;;;;8.23;1.40;;;;;;;29.00;29.61;102222.00;5034871;28;20034;-72
2022/05/26 10:34:14;;;;;;;4.07;1.13;;;;;;;29.75;28.93;102214.19;5035639;28;20035;-71
2022/05/26 10:36:48;;;;;;;6.97;1.88;;;;;;;28.38;31.60;102224.16;5034763;28;20078;-72
2022/05/26 10:40:01;;;;;;;3.92;1.40;;;;;;;28.13;30.50;102232.94;5035597;28;20482;-72
2022/05/26 10:42:43;;;;;;;5.20;1.10;;;;;;;26.86;31.87;102232.34;5032028;28;20397;-71
2022/05/26 10:45:14;;;;;;;5.65;1.02;;;;;;;26.80;31.65;102224.66;5034832;28;20026;-71
2022/05/26 10:47:58;;;;;;;7.18;1.23;;;;;;;25.86;32.38;102225.25;5033516;28;20104;-71
2022/05/26 10:50:50;;;;;;;5.68;1.33;;;;;;;26.66;32.98;102211.13;5014539;28;20117;-72
2022/05/26 10:53:25;;;;;;;5.07;1.27;;;;;;;26.09;33.11;102217.84;5032303;28;20025;-72
2022/05/26 10:56:05;;;;;;;7.35;1.15;;;;;;;27.82;31.86;102213.31;5033075;28;20041;-71
2022/05/26 10:58:34;;;;;;;5.22;1.65;;;;;;;26.37;33.19;102221.69;5034378;28;20029;-72
2022/05/26 11:01:05;;;;;;;7.00;2.35;;;;;;;27.43;31.81;102206.72;5032536;28;20436;-71
2022/05/26 11:03:37;;;;;;;3.40;1.15;;;;;;;27.86;31.68;102209.50;5021678;28;20029;-71
2022/05/26 11:06:08;;;;;;;5.22;1.42;;;;;;;27.87;30.90;102211.19;5034365;28;20029;-71
2022/05/26 11:08:43;;;;;;;3.13;1.15;;;;;;;29.13;28.05;102212.16;5028638;28;20029;-70
2022/05/26 11:11:32;;;;;;;7.82;1.70;;;;;;;28.63;29.30;102200.19;5031434;28;20040;-71
2022/05/26 11:17:21;;;;;;;3.45;1.17;;;;;;;28.93;28.30;102200.91;5033974;28;20029;-72
2022/05/26 11:17:22;;;;;;;2.05;0.73;;;;;;;29.26;28.55;102196.06;5033882;28;20029;-71
2022/05/26 11:20:08;;;;;;;6.80;1.20;;;;;;;30.61;26.59;102195.53;5032981;28;20038;-69
2022/05/26 11:22:35;;;;;;;7.13;1.30;;;;;;;28.35;29.52;102191.25;5031416;28;20033;-68
2022/05/26 11:25:01;;;;;;;5.50;1.10;;;;;;;28.69;29.32;102199.84;5034070;28;20072;-69
2022/05/26 11:27:34;;;;;;;11.63;1.50;;;;;;;29.03;28.86;102190.38;5033456;28;20033;-69
2022/05/26 11:36:07;;;;;;;5.90;1.27;;;;;;;27.54;30.59;102182.75;5031609;28;20030;-69
2022/05/26 11:38:25;;;;;;;6.70;1.20;;;;;;;28.56;30.06;102191.66;5036488;28;20146;-69
2022/05/26 11:40:59;;;;;;;4.00;1.23;;;;;;;30.21;28.88;102190.34;5033441;28;20087;-69
2022/05/26 11:43:46;;;;;;;3.65;0.77;;;;;;;28.73;30.10;102190.63;5033185;28;20438;-69
2022/05/26 11:46:44;;;;;;;1.88;0.70;;;;;;;29.40;29.40;102206.75;5042731;28;20045;-68
2022/05/26 11:49:11;;;;;;;5.82;1.08;;;;;;;28.26;30.55;102217.75;5051468;28;20029;-70
2022/05/26 11:51:39;;;;;;;5.25;0.80;;;;;;;29.76;29.29;102204.31;5033857;28;20499;-69
2022/05/26 11:54:07;;;;;;;4.90;1.00;;;;;;;29.07;29.67;102217.94;5013852;28;20057;-69
2022/05/26 11:56:32;;;;;;;6.43;1.00;;;;;;;28.04;30.90;102220.06;5013321;28;20130;-68
2022/05/26 11:59:26;;;;;;;2.70;0.80;;;;;;;29.11;28.60;102230.22;5012673;28;20121;-70
2022/05/26 12:02:00;;;;;;;2.55;0.80;;;;;;;29.51;29.35;102211.41;5029814;28;20025;-71
2022/05/26 12:04:30;;;;;;;7.68;1.00;;;;;;;27.88;31.07;102218.28;5032395;28;20041;-71
2022/05/26 12:07:22;;;;;;;4.97;1.10;;;;;;;29.54;29.01;102208.50;5062841;28;20029;-67
2022/05/26 12:09:59;;;;;;;4.10;0.60;;;;;;;27.76;31.03;102211.00;5031442;28;20080;-70
2022/05/26 12:12:24;;;;;;;6.25;1.00;;;;;;;27.59;31.14;102199.47;5032796;28;20018;-71